sensor_id;sensor_type;location;lat;lon;timestamp;P1;durP1;ratioP1;P2;durP2;ratioP2
12585;SDS011;6358;50.760;0.282;2023-06-14T00:00:43;3.28;;;2.60;;
12585;SDS011;6358;50.760;0.282;2023-06-14T00:03:10;4.35;;;2.88;;
12585;SDS011;6358;50.760;0.282;2023-06-14T00:05:37;3.00;;;2.53;;
12585;SDS011;6358;50.760;0.282;2023-06-14T00:08:06;3.97;;;2.40;;
12585;SDS011;6358;50.760;0.282;2023-06-14T00:10:36;3.15;;;2.67;;
12585;SDS011;6358;50.760;0.282;2023-06-14T00:13:03;2.42;;;2.22;;
12585;SDS011;6358;50.760;0.282;2023-06-14T00:15:32;3.30;;;2.65;;
12585;SDS011;6358;50.760;0.282;2023-06-14T00:17:59;3.92;;;2.47;;
12585;SDS011;6358;50.760;0.282;2023-06-14T00:20:28;2.65;;;2.13;;
12585;SDS011;6358;50.760;0.282;2023-06-14T00:22:55;3.33;;;2.40;;
12585;SDS011;6358;50.760;0.282;2023-06-14T00:25:22;3.83;;;2.83;;
12585;SDS011;6358;50.760;0.282;2023-06-14T00:27:50;3.88;;;2.70;;
12585;SDS011;6358;50.760;0.282;2023-06-14T00:30:16;3.35;;;2.67;;
12585;SDS011;6358;50.760;0.282;2023-06-14T00:32:43;2.58;;;2.38;;
12585;SDS011;6358;50.760;0.282;2023-06-14T00:35:09;3.83;;;2.67;;
12585;SDS011;6358;50.760;0.282;2023-06-14T00:37:35;2.58;;;2.22;;
12585;SDS011;6358;50.760;0.282;2023-06-14T00:40:02;2.83;;;2.30;;
12585;SDS011;6358;50.760;0.282;2023-06-14T00:42:29;4.80;;;2.50;;
12585;SDS011;6358;50.760;0.282;2023-06-14T00:44:55;2.80;;;2.50;;
12585;SDS011;6358;50.760;0.282;2023-06-14T00:47:22;2.60;;;2.25;;
12585;SDS011;6358;50.760;0.282;2023-06-14T00:49:48;2.30;;;2.10;;
12585;SDS011;6358;50.760;0.282;2023-06-14T00:52:16;2.65;;;2.25;;
12585;SDS011;6358;50.760;0.282;2023-06-14T00:54:42;3.40;;;2.30;;
12585;SDS011;6358;50.760;0.282;2023-06-14T00:57:12;3.08;;;2.35;;
12585;SDS011;6358;50.760;0.282;2023-06-14T00:59:45;2.50;;;2.30;;
12585;SDS011;6358;50.760;0.282;2023-06-14T01:02:11;2.92;;;2.33;;
12585;SDS011;6358;50.760;0.282;2023-06-14T01:04:40;2.47;;;2.10;;
12585;SDS011;6358;50.760;0.282;2023-06-14T01:07:18;2.55;;;2.35;;
12585;SDS011;6358;50.760;0.282;2023-06-14T01:12:21;3.40;;;2.30;;
12585;SDS011;6358;50.760;0.282;2023-06-14T01:14:50;4.50;;;2.30;;
12585;SDS011;6358;50.760;0.282;2023-06-14T01:17:20;3.17;;;2.40;;
12585;SDS011;6358;50.760;0.282;2023-06-14T01:19:48;2.85;;;2.38;;
12585;SDS011;6358;50.760;0.282;2023-06-14T01:22:14;2.75;;;2.17;;
12585;SDS011;6358;50.760;0.282;2023-06-14T01:24:40;3.15;;;2.15;;
12585;SDS011;6358;50.760;0.282;2023-06-14T01:27:09;2.80;;;2.30;;
12585;SDS011;6358;50.760;0.282;2023-06-14T01:29:37;3.10;;;2.22;;
12585;SDS011;6358;50.760;0.282;2023-06-14T01:32:03;2.50;;;2.30;;
12585;SDS011;6358;50.760;0.282;2023-06-14T01:34:30;2.45;;;2.15;;
12585;SDS011;6358;50.760;0.282;2023-06-14T01:36:56;2.47;;;2.00;;
12585;SDS011;6358;50.760;0.282;2023-06-14T01:39:23;3.72;;;2.40;;
12585;SDS011;6358;50.760;0.282;2023-06-14T01:41:49;3.58;;;2.00;;
12585;SDS011;6358;50.760;0.282;2023-06-14T01:44:17;2.45;;;2.13;;
12585;SDS011;6358;50.760;0.282;2023-06-14T01:46:43;3.65;;;2.10;;
12585;SDS011;6358;50.760;0.282;2023-06-14T01:49:10;2.63;;;2.08;;
12585;SDS011;6358;50.760;0.282;2023-06-14T01:51:36;2.40;;;2.20;;
12585;SDS011;6358;50.760;0.282;2023-06-14T01:54:02;2.80;;;2.08;;
12585;SDS011;6358;50.760;0.282;2023-06-14T01:56:29;3.00;;;2.05;;
12585;SDS011;6358;50.760;0.282;2023-06-14T01:58:55;2.72;;;2.08;;
12585;SDS011;6358;50.760;0.282;2023-06-14T02:01:21;2.83;;;2.08;;
12585;SDS011;6358;50.760;0.282;2023-06-14T02:03:47;2.70;;;2.20;;
12585;SDS011;6358;50.760;0.282;2023-06-14T02:06:14;2.78;;;2.22;;
12585;SDS011;6358;50.760;0.282;2023-06-14T02:08:41;3.38;;;2.17;;
12585;SDS011;6358;50.760;0.282;2023-06-14T02:11:07;2.28;;;2.08;;
12585;SDS011;6358;50.760;0.282;2023-06-14T02:13:34;2.38;;;2.08;;
12585;SDS011;6358;50.760;0.282;2023-06-14T02:16:00;2.42;;;2.17;;
12585;SDS011;6358;50.760;0.282;2023-06-14T02:18:26;3.30;;;2.08;;
12585;SDS011;6358;50.760;0.282;2023-06-14T02:20:52;2.17;;;1.88;;
12585;SDS011;6358;50.760;0.282;2023-06-14T02:23:18;2.83;;;2.20;;
12585;SDS011;6358;50.760;0.282;2023-06-14T02:25:45;2.97;;;1.98;;
12585;SDS011;6358;50.760;0.282;2023-06-14T02:28:11;3.45;;;2.00;;
12585;SDS011;6358;50.760;0.282;2023-06-14T02:30:37;2.10;;;1.90;;
12585;SDS011;6358;50.760;0.282;2023-06-14T02:33:04;2.80;;;2.15;;
12585;SDS011;6358;50.760;0.282;2023-06-14T02:35:30;3.15;;;2.28;;
12585;SDS011;6358;50.760;0.282;2023-06-14T02:37:56;2.45;;;2.03;;
12585;SDS011;6358;50.760;0.282;2023-06-14T02:40:22;2.05;;;1.88;;
12585;SDS011;6358;50.760;0.282;2023-06-14T02:42:49;4.57;;;1.90;;
12585;SDS011;6358;50.760;0.282;2023-06-14T02:45:15;2.00;;;1.90;;
12585;SDS011;6358;50.760;0.282;2023-06-14T02:47:41;2.20;;;2.00;;
12585;SDS011;6358;50.760;0.282;2023-06-14T02:50:07;2.05;;;1.77;;
12585;SDS011;6358;50.760;0.282;2023-06-14T02:52:34;2.72;;;1.98;;
12585;SDS011;6358;50.760;0.282;2023-06-14T02:55:00;2.00;;;1.83;;
12585;SDS011;6358;50.760;0.282;2023-06-14T02:57:26;2.67;;;2.03;;
12585;SDS011;6358;50.760;0.282;2023-06-14T02:59:52;2.17;;;1.88;;
12585;SDS011;6358;50.760;0.282;2023-06-14T03:02:18;2.15;;;1.95;;
12585;SDS011;6358;50.760;0.282;2023-06-14T03:04:44;2.10;;;1.90;;
12585;SDS011;6358;50.760;0.282;2023-06-14T03:07:11;3.70;;;1.83;;
12585;SDS011;6358;50.760;0.282;2023-06-14T03:09:38;2.10;;;1.90;;
12585;SDS011;6358;50.760;0.282;2023-06-14T03:12:05;2.13;;;1.92;;
12585;SDS011;6358;50.760;0.282;2023-06-14T03:14:37;2.40;;;2.10;;
12585;SDS011;6358;50.760;0.282;2023-06-14T03:17:03;4.35;;;2.28;;
12585;SDS011;6358;50.760;0.282;2023-06-14T03:19:29;2.53;;;2.00;;
12585;SDS011;6358;50.760;0.282;2023-06-14T03:21:56;2.10;;;1.90;;
12585;SDS011;6358;50.760;0.282;2023-06-14T03:24:23;2.63;;;1.70;;
12585;SDS011;6358;50.760;0.282;2023-06-14T03:26:49;2.00;;;1.80;;
12585;SDS011;6358;50.760;0.282;2023-06-14T03:29:15;2.45;;;2.05;;
12585;SDS011;6358;50.760;0.282;2023-06-14T03:31:55;2.53;;;1.90;;
12585;SDS011;6358;50.760;0.282;2023-06-14T03:34:22;2.10;;;1.90;;
12585;SDS011;6358;50.760;0.282;2023-06-14T03:36:48;2.50;;;2.00;;
12585;SDS011;6358;50.760;0.282;2023-06-14T03:39:14;3.53;;;2.10;;
12585;SDS011;6358;50.760;0.282;2023-06-14T03:41:40;2.58;;;2.00;;
12585;SDS011;6358;50.760;0.282;2023-06-14T03:44:06;2.35;;;1.80;;
12585;SDS011;6358;50.760;0.282;2023-06-14T03:46:33;1.92;;;1.80;;
12585;SDS011;6358;50.760;0.282;2023-06-14T03:48:59;4.07;;;1.80;;
12585;SDS011;6358;50.760;0.282;2023-06-14T03:51:25;3.60;;;2.10;;
12585;SDS011;6358;50.760;0.282;2023-06-14T03:53:51;2.50;;;1.90;;
12585;SDS011;6358;50.760;0.282;2023-06-14T03:56:17;1.92;;;1.83;;
12585;SDS011;6358;50.760;0.282;2023-06-14T03:58:43;5.68;;;1.95;;
12585;SDS011;6358;50.760;0.282;2023-06-14T04:01:09;2.20;;;1.90;;
12585;SDS011;6358;50.760;0.282;2023-06-14T04:03:37;2.28;;;2.08;;
12585;SDS011;6358;50.760;0.282;2023-06-14T04:06:05;2.08;;;1.80;;
12585;SDS011;6358;50.760;0.282;2023-06-14T04:08:32;2.92;;;1.90;;
12585;SDS011;6358;50.760;0.282;2023-06-14T04:10:59;2.72;;;1.90;;
12585;SDS011;6358;50.760;0.282;2023-06-14T04:13:26;3.05;;;2.00;;
12585;SDS011;6358;50.760;0.282;2023-06-14T04:15:52;2.42;;;2.05;;
12585;SDS011;6358;50.760;0.282;2023-06-14T04:18:18;2.10;;;1.90;;
12585;SDS011;6358;50.760;0.282;2023-06-14T04:20:45;2.00;;;1.83;;
12585;SDS011;6358;50.760;0.282;2023-06-14T04:23:12;2.60;;;2.08;;
12585;SDS011;6358;50.760;0.282;2023-06-14T04:25:39;2.63;;;2.00;;
12585;SDS011;6358;50.760;0.282;2023-06-14T04:28:05;2.20;;;2.00;;
12585;SDS011;6358;50.760;0.282;2023-06-14T04:30:34;3.58;;;2.08;;
12585;SDS011;6358;50.760;0.282;2023-06-14T04:33:04;2.90;;;2.25;;
12585;SDS011;6358;50.760;0.282;2023-06-14T04:35:31;2.65;;;2.00;;
12585;SDS011;6358;50.760;0.282;2023-06-14T04:37:57;2.45;;;1.88;;
12585;SDS011;6358;50.760;0.282;2023-06-14T04:40:24;1.90;;;1.70;;
12585;SDS011;6358;50.760;0.282;2023-06-14T04:42:50;2.53;;;1.90;;
12585;SDS011;6358;50.760;0.282;2023-06-14T04:45:16;4.50;;;2.03;;
12585;SDS011;6358;50.760;0.282;2023-06-14T04:47:42;2.28;;;1.73;;
12585;SDS011;6358;50.760;0.282;2023-06-14T04:50:09;2.05;;;1.85;;
12585;SDS011;6358;50.760;0.282;2023-06-14T04:52:38;2.55;;;1.90;;
12585;SDS011;6358;50.760;0.282;2023-06-14T04:55:04;2.83;;;2.00;;
12585;SDS011;6358;50.760;0.282;2023-06-14T04:57:31;2.13;;;1.95;;
12585;SDS011;6358;50.760;0.282;2023-06-14T04:59:57;2.75;;;2.20;;
12585;SDS011;6358;50.760;0.282;2023-06-14T05:02:26;3.78;;;2.22;;
12585;SDS011;6358;50.760;0.282;2023-06-14T05:04:52;2.35;;;2.05;;
12585;SDS011;6358;50.760;0.282;2023-06-14T05:07:19;2.83;;;2.00;;
12585;SDS011;6358;50.760;0.282;2023-06-14T05:09:48;2.42;;;1.95;;
12585;SDS011;6358;50.760;0.282;2023-06-14T05:12:15;3.30;;;2.25;;
12585;SDS011;6358;50.760;0.282;2023-06-14T05:14:43;2.80;;;2.00;;
12585;SDS011;6358;50.760;0.282;2023-06-14T05:17:09;2.13;;;1.92;;
12585;SDS011;6358;50.760;0.282;2023-06-14T05:19:36;3.22;;;1.83;;
12585;SDS011;6358;50.760;0.282;2023-06-14T05:22:02;2.60;;;1.90;;
12585;SDS011;6358;50.760;0.282;2023-06-14T05:24:28;2.55;;;1.95;;
12585;SDS011;6358;50.760;0.282;2023-06-14T05:26:57;4.45;;;2.20;;
12585;SDS011;6358;50.760;0.282;2023-06-14T05:29:24;2.45;;;1.73;;
12585;SDS011;6358;50.760;0.282;2023-06-14T05:31:51;2.95;;;2.00;;
12585;SDS011;6358;50.760;0.282;2023-06-14T05:34:17;2.30;;;2.10;;
12585;SDS011;6358;50.760;0.282;2023-06-14T05:36:43;1.70;;;1.60;;
12585;SDS011;6358;50.760;0.282;2023-06-14T05:39:09;2.22;;;1.83;;
12585;SDS011;6358;50.760;0.282;2023-06-14T05:41:35;2.00;;;1.80;;
12585;SDS011;6358;50.760;0.282;2023-06-14T05:44:01;2.67;;;2.20;;
12585;SDS011;6358;50.760;0.282;2023-06-14T05:46:27;2.88;;;2.03;;
12585;SDS011;6358;50.760;0.282;2023-06-14T05:48:54;3.47;;;2.20;;
12585;SDS011;6358;50.760;0.282;2023-06-14T05:51:20;2.70;;;2.00;;
12585;SDS011;6358;50.760;0.282;2023-06-14T05:53:47;3.42;;;2.30;;
12585;SDS011;6358;50.760;0.282;2023-06-14T05:56:14;3.33;;;2.17;;
12585;SDS011;6358;50.760;0.282;2023-06-14T05:58:42;3.10;;;2.17;;
12585;SDS011;6358;50.760;0.282;2023-06-14T06:01:08;3.35;;;2.00;;
12585;SDS011;6358;50.760;0.282;2023-06-14T06:03:34;2.25;;;2.05;;
12585;SDS011;6358;50.760;0.282;2023-06-14T06:06:01;2.10;;;1.90;;
12585;SDS011;6358;50.760;0.282;2023-06-14T06:08:28;3.03;;;2.33;;
12585;SDS011;6358;50.760;0.282;2023-06-14T06:10:54;2.83;;;2.10;;
12585;SDS011;6358;50.760;0.282;2023-06-14T06:13:20;2.42;;;2.08;;
12585;SDS011;6358;50.760;0.282;2023-06-14T06:15:47;2.50;;;1.92;;
12585;SDS011;6358;50.760;0.282;2023-06-14T06:18:13;3.50;;;2.17;;
12585;SDS011;6358;50.760;0.282;2023-06-14T06:20:39;2.53;;;1.90;;
12585;SDS011;6358;50.760;0.282;2023-06-14T06:23:05;4.97;;;2.10;;
12585;SDS011;6358;50.760;0.282;2023-06-14T06:25:32;2.55;;;2.25;;
12585;SDS011;6358;50.760;0.282;2023-06-14T06:27:59;2.33;;;2.10;;
12585;SDS011;6358;50.760;0.282;2023-06-14T06:30:25;1.88;;;1.73;;
12585;SDS011;6358;50.760;0.282;2023-06-14T06:32:51;3.65;;;2.05;;
12585;SDS011;6358;50.760;0.282;2023-06-14T06:35:18;3.00;;;1.92;;
12585;SDS011;6358;50.760;0.282;2023-06-14T06:37:44;2.63;;;1.80;;
12585;SDS011;6358;50.760;0.282;2023-06-14T06:40:10;3.78;;;2.35;;
12585;SDS011;6358;50.760;0.282;2023-06-14T06:42:37;2.45;;;1.92;;
12585;SDS011;6358;50.760;0.282;2023-06-14T06:45:04;2.78;;;2.00;;
12585;SDS011;6358;50.760;0.282;2023-06-14T06:47:30;2.35;;;2.15;;
12585;SDS011;6358;50.760;0.282;2023-06-14T06:49:56;2.58;;;1.80;;
12585;SDS011;6358;50.760;0.282;2023-06-14T06:52:22;3.55;;;1.80;;
12585;SDS011;6358;50.760;0.282;2023-06-14T06:54:48;2.67;;;2.10;;
12585;SDS011;6358;50.760;0.282;2023-06-14T06:57:15;2.60;;;2.13;;
12585;SDS011;6358;50.760;0.282;2023-06-14T06:59:41;2.55;;;2.00;;
12585;SDS011;6358;50.760;0.282;2023-06-14T07:02:07;2.88;;;1.90;;
12585;SDS011;6358;50.760;0.282;2023-06-14T07:04:34;5.85;;;2.50;;
12585;SDS011;6358;50.760;0.282;2023-06-14T07:07:00;3.50;;;2.00;;
12585;SDS011;6358;50.760;0.282;2023-06-14T07:09:26;4.32;;;2.08;;
12585;SDS011;6358;50.760;0.282;2023-06-14T07:11:52;3.33;;;2.13;;
12585;SDS011;6358;50.760;0.282;2023-06-14T07:14:18;3.67;;;2.10;;
12585;SDS011;6358;50.760;0.282;2023-06-14T07:16:46;2.75;;;2.10;;
12585;SDS011;6358;50.760;0.282;2023-06-14T07:19:12;2.67;;;2.10;;
12585;SDS011;6358;50.760;0.282;2023-06-14T07:21:38;2.45;;;2.08;;
12585;SDS011;6358;50.760;0.282;2023-06-14T07:24:05;2.60;;;1.90;;
12585;SDS011;6358;50.760;0.282;2023-06-14T07:26:32;4.50;;;2.45;;
12585;SDS011;6358;50.760;0.282;2023-06-14T07:28:58;3.53;;;2.38;;
12585;SDS011;6358;50.760;0.282;2023-06-14T07:31:25;3.67;;;2.28;;
12585;SDS011;6358;50.760;0.282;2023-06-14T07:33:51;3.53;;;2.30;;
12585;SDS011;6358;50.760;0.282;2023-06-14T07:36:17;3.75;;;2.42;;
12585;SDS011;6358;50.760;0.282;2023-06-14T07:38:44;3.40;;;2.33;;
12585;SDS011;6358;50.760;0.282;2023-06-14T07:41:10;3.25;;;2.10;;
12585;SDS011;6358;50.760;0.282;2023-06-14T07:43:36;5.05;;;2.42;;
12585;SDS011;6358;50.760;0.282;2023-06-14T07:46:02;3.17;;;2.28;;
12585;SDS011;6358;50.760;0.282;2023-06-14T07:48:28;2.95;;;2.40;;
12585;SDS011;6358;50.760;0.282;2023-06-14T07:50:54;4.60;;;2.40;;
12585;SDS011;6358;50.760;0.282;2023-06-14T07:53:20;3.13;;;2.30;;
12585;SDS011;6358;50.760;0.282;2023-06-14T07:55:47;3.50;;;2.38;;
12585;SDS011;6358;50.760;0.282;2023-06-14T07:58:13;2.95;;;2.25;;
12585;SDS011;6358;50.760;0.282;2023-06-14T08:00:40;4.43;;;2.42;;
12585;SDS011;6358;50.760;0.282;2023-06-14T08:03:06;2.63;;;2.28;;
12585;SDS011;6358;50.760;0.282;2023-06-14T08:05:32;2.40;;;2.10;;
12585;SDS011;6358;50.760;0.282;2023-06-14T08:07:59;2.80;;;2.45;;
12585;SDS011;6358;50.760;0.282;2023-06-14T08:10:26;2.50;;;2.30;;
12585;SDS011;6358;50.760;0.282;2023-06-14T08:12:52;4.45;;;2.28;;
12585;SDS011;6358;50.760;0.282;2023-06-14T08:15:19;3.78;;;2.58;;
12585;SDS011;6358;50.760;0.282;2023-06-14T08:17:45;5.65;;;2.28;;
12585;SDS011;6358;50.760;0.282;2023-06-14T08:20:12;3.53;;;2.72;;
12585;SDS011;6358;50.760;0.282;2023-06-14T08:22:42;3.72;;;2.72;;
12585;SDS011;6358;50.760;0.282;2023-06-14T08:25:08;2.53;;;2.33;;
12585;SDS011;6358;50.760;0.282;2023-06-14T08:27:34;3.78;;;2.30;;
12585;SDS011;6358;50.760;0.282;2023-06-14T08:30:01;2.75;;;2.53;;
12585;SDS011;6358;50.760;0.282;2023-06-14T08:32:28;2.72;;;2.50;;
12585;SDS011;6358;50.760;0.282;2023-06-14T08:34:54;3.35;;;2.50;;
12585;SDS011;6358;50.760;0.282;2023-06-14T08:37:20;4.07;;;2.50;;
12585;SDS011;6358;50.760;0.282;2023-06-14T08:39:46;2.63;;;2.42;;
12585;SDS011;6358;50.760;0.282;2023-06-14T08:42:12;2.83;;;2.50;;
12585;SDS011;6358;50.760;0.282;2023-06-14T08:44:40;3.67;;;2.65;;
12585;SDS011;6358;50.760;0.282;2023-06-14T08:47:07;3.67;;;2.70;;
12585;SDS011;6358;50.760;0.282;2023-06-14T08:49:34;3.05;;;2.38;;
12585;SDS011;6358;50.760;0.282;2023-06-14T08:52:01;5.80;;;2.65;;
12585;SDS011;6358;50.760;0.282;2023-06-14T08:54:28;3.38;;;2.80;;
12585;SDS011;6358;50.760;0.282;2023-06-14T08:56:55;2.97;;;2.45;;
12585;SDS011;6358;50.760;0.282;2023-06-14T08:59:27;2.92;;;2.40;;
12585;SDS011;6358;50.760;0.282;2023-06-14T09:01:54;3.42;;;2.85;;
12585;SDS011;6358;50.760;0.282;2023-06-14T09:04:20;3.92;;;2.60;;
12585;SDS011;6358;50.760;0.282;2023-06-14T09:06:47;3.30;;;2.80;;
12585;SDS011;6358;50.760;0.282;2023-06-14T09:09:19;3.63;;;2.88;;
12585;SDS011;6358;50.760;0.282;2023-06-14T09:11:45;3.22;;;2.75;;
12585;SDS011;6358;50.760;0.282;2023-06-14T09:14:12;2.75;;;2.55;;
12585;SDS011;6358;50.760;0.282;2023-06-14T09:16:38;4.18;;;2.72;;
12585;SDS011;6358;50.760;0.282;2023-06-14T09:19:04;4.80;;;2.70;;
12585;SDS011;6358;50.760;0.282;2023-06-14T09:21:31;4.07;;;2.55;;
12585;SDS011;6358;50.760;0.282;2023-06-14T09:24:01;4.03;;;2.90;;
12585;SDS011;6358;50.760;0.282;2023-06-14T09:26:27;3.20;;;2.90;;
12585;SDS011;6358;50.760;0.282;2023-06-14T09:28:54;3.33;;;2.58;;
12585;SDS011;6358;50.760;0.282;2023-06-14T09:31:20;3.20;;;2.90;;
12585;SDS011;6358;50.760;0.282;2023-06-14T09:33:50;4.65;;;2.70;;
12585;SDS011;6358;50.760;0.282;2023-06-14T09:36:21;3.20;;;2.65;;
12585;SDS011;6358;50.760;0.282;2023-06-14T09:38:54;3.72;;;2.70;;
12585;SDS011;6358;50.760;0.282;2023-06-14T09:41:20;3.90;;;2.78;;
12585;SDS011;6358;50.760;0.282;2023-06-14T09:43:46;3.53;;;2.90;;
12585;SDS011;6358;50.760;0.282;2023-06-14T09:46:13;3.55;;;2.97;;
12585;SDS011;6358;50.760;0.282;2023-06-14T09:48:39;5.03;;;2.90;;
12585;SDS011;6358;50.760;0.282;2023-06-14T09:51:11;4.32;;;3.00;;
12585;SDS011;6358;50.760;0.282;2023-06-14T09:53:40;3.95;;;3.08;;
12585;SDS011;6358;50.760;0.282;2023-06-14T09:56:06;3.47;;;2.80;;
12585;SDS011;6358;50.760;0.282;2023-06-14T09:58:33;3.30;;;3.00;;
12585;SDS011;6358;50.760;0.282;2023-06-14T10:01:01;3.08;;;2.75;;
12585;SDS011;6358;50.760;0.282;2023-06-14T10:03:28;3.78;;;2.80;;
12585;SDS011;6358;50.760;0.282;2023-06-14T10:05:58;3.63;;;2.90;;
12585;SDS011;6358;50.760;0.282;2023-06-14T10:08:27;4.30;;;3.30;;
12585;SDS011;6358;50.760;0.282;2023-06-14T10:10:57;4.85;;;3.13;;
12585;SDS011;6358;50.760;0.282;2023-06-14T10:13:23;4.82;;;3.20;;
12585;SDS011;6358;50.760;0.282;2023-06-14T10:19:21;3.22;;;2.92;;
12585;SDS011;6358;50.760;0.282;2023-06-14T10:23:48;3.80;;;3.20;;
12585;SDS011;6358;50.760;0.282;2023-06-14T10:26:20;3.97;;;3.00;;
12585;SDS011;6358;50.760;0.282;2023-06-14T10:29:08;4.03;;;3.40;;
12585;SDS011;6358;50.760;0.282;2023-06-14T10:34:07;3.22;;;2.92;;
12585;SDS011;6358;50.760;0.282;2023-06-14T10:36:33;4.07;;;3.00;;
12585;SDS011;6358;50.760;0.282;2023-06-14T10:39:01;3.63;;;3.30;;
12585;SDS011;6358;50.760;0.282;2023-06-14T10:41:30;4.15;;;3.00;;
12585;SDS011;6358;50.760;0.282;2023-06-14T10:47:04;4.82;;;3.13;;
12585;SDS011;6358;50.760;0.282;2023-06-14T10:52:07;4.55;;;3.03;;
12585;SDS011;6358;50.760;0.282;2023-06-14T10:57:26;3.83;;;3.45;;
12585;SDS011;6358;50.760;0.282;2023-06-14T10:59:53;3.55;;;3.10;;
12585;SDS011;6358;50.760;0.282;2023-06-14T11:04:48;4.95;;;3.50;;
12585;SDS011;6358;50.760;0.282;2023-06-14T11:12:25;4.45;;;3.65;;
12585;SDS011;6358;50.760;0.282;2023-06-14T11:14:53;5.55;;;3.45;;
12585;SDS011;6358;50.760;0.282;2023-06-14T11:17:19;4.93;;;3.80;;
12585;SDS011;6358;50.760;0.282;2023-06-14T11:19:45;4.40;;;3.28;;
12585;SDS011;6358;50.760;0.282;2023-06-14T11:22:12;4.40;;;3.40;;
12585;SDS011;6358;50.760;0.282;2023-06-14T11:24:40;4.65;;;3.45;;
12585;SDS011;6358;50.760;0.282;2023-06-14T11:27:06;3.65;;;3.35;;
12585;SDS011;6358;50.760;0.282;2023-06-14T11:29:33;3.90;;;3.50;;
12585;SDS011;6358;50.760;0.282;2023-06-14T11:31:59;4.30;;;3.58;;
12585;SDS011;6358;50.760;0.282;2023-06-14T11:34:26;4.28;;;3.60;;
12585;SDS011;6358;50.760;0.282;2023-06-14T11:36:52;4.22;;;3.67;;
12585;SDS011;6358;50.760;0.282;2023-06-14T11:39:23;3.83;;;3.42;;
12585;SDS011;6358;50.760;0.282;2023-06-14T11:41:49;4.55;;;3.90;;
12585;SDS011;6358;50.760;0.282;2023-06-14T11:44:15;4.63;;;3.55;;
12585;SDS011;6358;50.760;0.282;2023-06-14T11:46:42;5.32;;;3.50;;
12585;SDS011;6358;50.760;0.282;2023-06-14T11:49:08;4.57;;;3.55;;
12585;SDS011;6358;50.760;0.282;2023-06-14T11:51:34;4.20;;;3.40;;
12585;SDS011;6358;50.760;0.282;2023-06-14T11:54:03;5.00;;;3.53;;
12585;SDS011;6358;50.760;0.282;2023-06-14T11:56:30;3.70;;;3.40;;
12585;SDS011;6358;50.760;0.282;2023-06-14T11:58:57;5.07;;;3.63;;
12585;SDS011;6358;50.760;0.282;2023-06-14T12:01:23;4.55;;;3.75;;
12585;SDS011;6358;50.760;0.282;2023-06-14T12:03:51;3.95;;;3.63;;
12585;SDS011;6358;50.760;0.282;2023-06-14T12:06:24;4.40;;;3.97;;
12585;SDS011;6358;50.760;0.282;2023-06-14T12:08:55;4.82;;;3.80;;
12585;SDS011;6358;50.760;0.282;2023-06-14T12:11:21;4.53;;;3.85;;
12585;SDS011;6358;50.760;0.282;2023-06-14T12:13:47;4.32;;;3.67;;
12585;SDS011;6358;50.760;0.282;2023-06-14T12:16:14;5.60;;;3.80;;
12585;SDS011;6358;50.760;0.282;2023-06-14T12:18:41;4.13;;;3.58;;
12585;SDS011;6358;50.760;0.282;2023-06-14T12:21:08;4.38;;;3.53;;
12585;SDS011;6358;50.760;0.282;2023-06-14T12:23:53;4.35;;;3.92;;
12585;SDS011;6358;50.760;0.282;2023-06-14T12:26:20;4.18;;;3.78;;
12585;SDS011;6358;50.760;0.282;2023-06-14T12:28:46;4.82;;;3.60;;
12585;SDS011;6358;50.760;0.282;2023-06-14T12:31:13;4.80;;;3.80;;
12585;SDS011;6358;50.760;0.282;2023-06-14T12:33:40;5.47;;;3.92;;
12585;SDS011;6358;50.760;0.282;2023-06-14T12:36:06;4.88;;;4.18;;
12585;SDS011;6358;50.760;0.282;2023-06-14T12:38:33;5.10;;;4.10;;
12585;SDS011;6358;50.760;0.282;2023-06-14T12:40:59;4.53;;;4.10;;
12585;SDS011;6358;50.760;0.282;2023-06-14T12:43:26;4.30;;;3.90;;
12585;SDS011;6358;50.760;0.282;2023-06-14T12:45:52;4.15;;;3.78;;
12585;SDS011;6358;50.760;0.282;2023-06-14T12:48:18;4.53;;;4.13;;
12585;SDS011;6358;50.760;0.282;2023-06-14T12:50:44;4.95;;;4.45;;
12585;SDS011;6358;50.760;0.282;2023-06-14T12:53:10;6.80;;;4.32;;
12585;SDS011;6358;50.760;0.282;2023-06-14T12:55:37;4.88;;;4.22;;
12585;SDS011;6358;50.760;0.282;2023-06-14T12:58:03;4.47;;;4.07;;
12585;SDS011;6358;50.760;0.282;2023-06-14T13:00:29;5.60;;;4.40;;
12585;SDS011;6358;50.760;0.282;2023-06-14T13:02:56;5.53;;;4.30;;
12585;SDS011;6358;50.760;0.282;2023-06-14T13:05:22;6.25;;;4.20;;
12585;SDS011;6358;50.760;0.282;2023-06-14T13:07:49;4.50;;;4.10;;
12585;SDS011;6358;50.760;0.282;2023-06-14T13:10:15;4.38;;;3.97;;
12585;SDS011;6358;50.760;0.282;2023-06-14T13:12:42;4.22;;;3.88;;
12585;SDS011;6358;50.760;0.282;2023-06-14T13:15:08;6.57;;;4.00;;
12585;SDS011;6358;50.760;0.282;2023-06-14T13:17:35;4.50;;;3.75;;
12585;SDS011;6358;50.760;0.282;2023-06-14T13:20:05;4.95;;;4.25;;
12585;SDS011;6358;50.760;0.282;2023-06-14T13:22:32;6.18;;;4.10;;
12585;SDS011;6358;50.760;0.282;2023-06-14T13:24:58;6.20;;;4.35;;
12585;SDS011;6358;50.760;0.282;2023-06-14T13:27:25;7.50;;;4.10;;
12585;SDS011;6358;50.760;0.282;2023-06-14T13:29:51;5.45;;;4.03;;
12585;SDS011;6358;50.760;0.282;2023-06-14T13:32:17;8.60;;;4.35;;
12585;SDS011;6358;50.760;0.282;2023-06-14T13:34:43;7.13;;;4.07;;
12585;SDS011;6358;50.760;0.282;2023-06-14T13:37:09;5.10;;;4.35;;
12585;SDS011;6358;50.760;0.282;2023-06-14T13:39:35;5.72;;;3.63;;
12585;SDS011;6358;50.760;0.282;2023-06-14T13:42:02;4.32;;;3.63;;
12585;SDS011;6358;50.760;0.282;2023-06-14T13:44:28;5.93;;;4.18;;
12585;SDS011;6358;50.760;0.282;2023-06-14T13:46:54;5.28;;;4.13;;
12585;SDS011;6358;50.760;0.282;2023-06-14T13:49:21;9.27;;;4.25;;
12585;SDS011;6358;50.760;0.282;2023-06-14T13:51:47;4.70;;;4.20;;
12585;SDS011;6358;50.760;0.282;2023-06-14T13:54:13;5.15;;;4.15;;
12585;SDS011;6358;50.760;0.282;2023-06-14T13:56:40;4.15;;;3.75;;
12585;SDS011;6358;50.760;0.282;2023-06-14T13:59:06;5.03;;;4.07;;
12585;SDS011;6358;50.760;0.282;2023-06-14T14:01:32;4.45;;;4.05;;
12585;SDS011;6358;50.760;0.282;2023-06-14T14:03:58;5.30;;;3.88;;
12585;SDS011;6358;50.760;0.282;2023-06-14T14:06:26;5.15;;;4.00;;
12585;SDS011;6358;50.760;0.282;2023-06-14T14:08:52;4.72;;;4.30;;
12585;SDS011;6358;50.760;0.282;2023-06-14T14:11:19;4.32;;;3.92;;
12585;SDS011;6358;50.760;0.282;2023-06-14T14:13:45;5.00;;;4.22;;
12585;SDS011;6358;50.760;0.282;2023-06-14T14:16:12;6.13;;;4.10;;
12585;SDS011;6358;50.760;0.282;2023-06-14T14:18:38;4.72;;;4.25;;
12585;SDS011;6358;50.760;0.282;2023-06-14T14:21:04;5.07;;;4.10;;
12585;SDS011;6358;50.760;0.282;2023-06-14T14:23:30;5.28;;;4.00;;
12585;SDS011;6358;50.760;0.282;2023-06-14T14:25:56;5.57;;;4.10;;
12585;SDS011;6358;50.760;0.282;2023-06-14T14:28:23;4.60;;;4.13;;
12585;SDS011;6358;50.760;0.282;2023-06-14T14:30:49;5.95;;;3.95;;
12585;SDS011;6358;50.760;0.282;2023-06-14T14:33:15;4.80;;;4.10;;
12585;SDS011;6358;50.760;0.282;2023-06-14T14:35:45;5.45;;;3.75;;
12585;SDS011;6358;50.760;0.282;2023-06-14T14:38:11;5.28;;;4.10;;
12585;SDS011;6358;50.760;0.282;2023-06-14T14:40:38;5.20;;;4.03;;
12585;SDS011;6358;50.760;0.282;2023-06-14T14:43:05;5.40;;;4.00;;
12585;SDS011;6358;50.760;0.282;2023-06-14T14:45:31;4.80;;;3.58;;
12585;SDS011;6358;50.760;0.282;2023-06-14T14:47:57;5.07;;;3.78;;
12585;SDS011;6358;50.760;0.282;2023-06-14T14:50:25;4.93;;;3.92;;
12585;SDS011;6358;50.760;0.282;2023-06-14T14:52:51;6.47;;;3.60;;
12585;SDS011;6358;50.760;0.282;2023-06-14T14:55:17;5.05;;;3.78;;
12585;SDS011;6358;50.760;0.282;2023-06-14T14:57:45;4.47;;;3.58;;
12585;SDS011;6358;50.760;0.282;2023-06-14T15:00:11;5.53;;;4.18;;
12585;SDS011;6358;50.760;0.282;2023-06-14T15:02:37;5.10;;;3.70;;
12585;SDS011;6358;50.760;0.282;2023-06-14T15:05:03;4.97;;;3.70;;
12585;SDS011;6358;50.760;0.282;2023-06-14T15:07:30;5.53;;;3.60;;
12585;SDS011;6358;50.760;0.282;2023-06-14T15:09:57;5.00;;;3.80;;
12585;SDS011;6358;50.760;0.282;2023-06-14T15:12:23;6.47;;;4.22;;
12585;SDS011;6358;50.760;0.282;2023-06-14T15:14:52;7.20;;;4.03;;
12585;SDS011;6358;50.760;0.282;2023-06-14T15:17:19;3.63;;;3.30;;
12585;SDS011;6358;50.760;0.282;2023-06-14T15:19:45;5.55;;;4.07;;
12585;SDS011;6358;50.760;0.282;2023-06-14T15:22:12;4.47;;;3.80;;
12585;SDS011;6358;50.760;0.282;2023-06-14T15:24:40;5.60;;;4.00;;